sensor_id;sensor_type;location;lat;lon;timestamp;P1;durP1;ratioP1;P2;durP2;ratioP2
41141;SDS011;63666;52.284;20.890;2023-12-29T00:00:49;8.20;;;4.90;;
41141;SDS011;63666;52.284;20.890;2023-12-29T00:03:44;8.80;;;5.10;;
41141;SDS011;63666;52.284;20.890;2023-12-29T00:06:21;9.10;;;5.30;;
41141;SDS011;63666;52.284;20.890;2023-12-29T00:08:59;8.20;;;5.40;;
41141;SDS011;63666;52.284;20.890;2023-12-29T00:11:35;8.60;;;5.10;;
41141;SDS011;63666;52.284;20.890;2023-12-29T00:14:14;7.80;;;5.20;;
41141;SDS011;63666;52.284;20.890;2023-12-29T00:16:50;7.90;;;5.00;;
41141;SDS011;63666;52.284;20.890;2023-12-29T00:19:32;8.50;;;5.10;;
41141;SDS011;63666;52.284;20.890;2023-12-29T00:22:08;8.00;;;5.00;;
41141;SDS011;63666;52.284;20.890;2023-12-29T00:24:46;8.70;;;4.90;;
41141;SDS011;63666;52.284;20.890;2023-12-29T00:27:26;8.90;;;5.30;;
41141;SDS011;63666;52.284;20.890;2023-12-29T00:30:03;7.90;;;4.90;;
41141;SDS011;63666;52.284;20.890;2023-12-29T00:32:42;9.70;;;5.00;;
41141;SDS011;63666;52.284;20.890;2023-12-29T00:35:18;7.80;;;4.70;;
41141;SDS011;63666;52.284;20.890;2023-12-29T00:37:54;8.20;;;4.70;;
41141;SDS011;63666;52.284;20.890;2023-12-29T00:40:30;8.50;;;4.90;;
41141;SDS011;63666;52.284;20.890;2023-12-29T00:43:06;7.70;;;4.60;;
41141;SDS011;63666;52.284;20.890;2023-12-29T00:45:42;8.20;;;4.80;;
41141;SDS011;63666;52.284;20.890;2023-12-29T00:48:18;8.00;;;4.90;;
41141;SDS011;63666;52.284;20.890;2023-12-29T00:50:54;8.00;;;4.80;;
41141;SDS011;63666;52.284;20.890;2023-12-29T00:53:30;8.10;;;4.60;;
41141;SDS011;63666;52.284;20.890;2023-12-29T00:56:11;9.20;;;5.40;;
41141;SDS011;63666;52.284;20.890;2023-12-29T00:58:47;8.10;;;4.60;;
41141;SDS011;63666;52.284;20.890;2023-12-29T01:01:23;8.10;;;4.90;;
41141;SDS011;63666;52.284;20.890;2023-12-29T01:03:58;7.90;;;4.60;;
41141;SDS011;63666;52.284;20.890;2023-12-29T01:06:35;7.70;;;4.60;;
41141;SDS011;63666;52.284;20.890;2023-12-29T01:09:11;6.80;;;4.60;;
41141;SDS011;63666;52.284;20.890;2023-12-29T01:11:47;7.10;;;4.50;;
41141;SDS011;63666;52.284;20.890;2023-12-29T01:14:23;7.10;;;4.80;;
41141;SDS011;63666;52.284;20.890;2023-12-29T01:16:59;7.50;;;4.70;;
41141;SDS011;63666;52.284;20.890;2023-12-29T01:19:35;6.70;;;4.50;;
41141;SDS011;63666;52.284;20.890;2023-12-29T01:22:12;7.50;;;4.50;;
41141;SDS011;63666;52.284;20.890;2023-12-29T01:24:50;7.50;;;4.60;;
41141;SDS011;63666;52.284;20.890;2023-12-29T01:27:26;7.00;;;4.40;;
41141;SDS011;63666;52.284;20.890;2023-12-29T01:30:04;7.20;;;4.50;;
41141;SDS011;63666;52.284;20.890;2023-12-29T01:32:43;7.20;;;4.50;;
41141;SDS011;63666;52.284;20.890;2023-12-29T01:35:22;7.40;;;4.50;;
41141;SDS011;63666;52.284;20.890;2023-12-29T01:38:04;8.10;;;4.70;;
41141;SDS011;63666;52.284;20.890;2023-12-29T01:40:46;6.80;;;4.40;;
41141;SDS011;63666;52.284;20.890;2023-12-29T01:43:22;7.40;;;4.50;;
41141;SDS011;63666;52.284;20.890;2023-12-29T01:46:00;7.10;;;4.50;;
41141;SDS011;63666;52.284;20.890;2023-12-29T01:48:38;7.50;;;4.50;;
41141;SDS011;63666;52.284;20.890;2023-12-29T01:51:16;7.40;;;4.20;;
41141;SDS011;63666;52.284;20.890;2023-12-29T01:53:55;7.10;;;4.20;;
41141;SDS011;63666;52.284;20.890;2023-12-29T01:56:33;6.30;;;4.40;;
41141;SDS011;63666;52.284;20.890;2023-12-29T01:59:12;7.50;;;4.50;;
41141;SDS011;63666;52.284;20.890;2023-12-29T02:01:58;7.70;;;4.50;;
41141;SDS011;63666;52.284;20.890;2023-12-29T02:04:34;6.80;;;4.50;;
41141;SDS011;63666;52.284;20.890;2023-12-29T02:07:11;7.20;;;4.50;;
41141;SDS011;63666;52.284;20.890;2023-12-29T02:09:47;6.70;;;4.20;;
41141;SDS011;63666;52.284;20.890;2023-12-29T02:12:24;7.50;;;4.30;;
41141;SDS011;63666;52.284;20.890;2023-12-29T02:15:01;7.50;;;4.30;;
41141;SDS011;63666;52.284;20.890;2023-12-29T02:17:41;7.00;;;4.30;;
41141;SDS011;63666;52.284;20.890;2023-12-29T02:20:20;7.20;;;4.10;;
41141;SDS011;63666;52.284;20.890;2023-12-29T02:22:56;6.80;;;4.00;;
41141;SDS011;63666;52.284;20.890;2023-12-29T02:25:33;6.30;;;4.10;;
41141;SDS011;63666;52.284;20.890;2023-12-29T02:28:14;6.00;;;4.20;;
41141;SDS011;63666;52.284;20.890;2023-12-29T02:30:56;7.10;;;4.00;;
41141;SDS011;63666;52.284;20.890;2023-12-29T02:33:36;6.90;;;4.00;;
41141;SDS011;63666;52.284;20.890;2023-12-29T02:36:14;7.30;;;4.00;;
41141;SDS011;63666;52.284;20.890;2023-12-29T02:38:54;7.00;;;4.10;;
41141;SDS011;63666;52.284;20.890;2023-12-29T02:41:32;6.70;;;4.30;;
41141;SDS011;63666;52.284;20.890;2023-12-29T02:44:08;6.70;;;4.10;;
41141;SDS011;63666;52.284;20.890;2023-12-29T02:46:44;7.10;;;4.20;;
41141;SDS011;63666;52.284;20.890;2023-12-29T02:49:20;6.80;;;4.30;;
41141;SDS011;63666;52.284;20.890;2023-12-29T02:51:57;6.50;;;3.80;;
41141;SDS011;63666;52.284;20.890;2023-12-29T02:54:40;6.20;;;3.90;;
41141;SDS011;63666;52.284;20.890;2023-12-29T02:57:16;6.50;;;3.90;;
41141;SDS011;63666;52.284;20.890;2023-12-29T02:59:52;7.10;;;4.30;;
41141;SDS011;63666;52.284;20.890;2023-12-29T03:02:31;6.00;;;3.90;;
41141;SDS011;63666;52.284;20.890;2023-12-29T03:05:08;6.70;;;4.20;;
41141;SDS011;63666;52.284;20.890;2023-12-29T03:07:44;6.20;;;3.80;;
41141;SDS011;63666;52.284;20.890;2023-12-29T03:10:20;7.20;;;4.20;;
41141;SDS011;63666;52.284;20.890;2023-12-29T03:12:58;6.60;;;4.20;;
41141;SDS011;63666;52.284;20.890;2023-12-29T03:15:36;7.50;;;4.00;;
41141;SDS011;63666;52.284;20.890;2023-12-29T03:18:13;6.30;;;3.70;;
41141;SDS011;63666;52.284;20.890;2023-12-29T03:20:50;6.30;;;3.80;;
41141;SDS011;63666;52.284;20.890;2023-12-29T03:23:27;6.20;;;3.70;;
41141;SDS011;63666;52.284;20.890;2023-12-29T03:26:03;7.70;;;4.20;;
41141;SDS011;63666;52.284;20.890;2023-12-29T03:28:41;6.60;;;4.10;;
41141;SDS011;63666;52.284;20.890;2023-12-29T03:31:18;5.90;;;3.70;;
41141;SDS011;63666;52.284;20.890;2023-12-29T03:33:55;7.00;;;4.00;;
41141;SDS011;63666;52.284;20.890;2023-12-29T03:36:36;6.70;;;4.40;;
41141;SDS011;63666;52.284;20.890;2023-12-29T03:39:13;6.70;;;3.90;;
41141;SDS011;63666;52.284;20.890;2023-12-29T03:41:49;6.50;;;3.80;;
41141;SDS011;63666;52.284;20.890;2023-12-29T03:44:27;5.90;;;3.70;;
41141;SDS011;63666;52.284;20.890;2023-12-29T03:47:04;6.20;;;3.80;;
41141;SDS011;63666;52.284;20.890;2023-12-29T03:49:40;6.80;;;3.90;;
41141;SDS011;63666;52.284;20.890;2023-12-29T03:52:17;7.00;;;3.80;;
41141;SDS011;63666;52.284;20.890;2023-12-29T03:54:54;6.60;;;3.90;;
41141;SDS011;63666;52.284;20.890;2023-12-29T03:57:32;6.60;;;4.10;;
41141;SDS011;63666;52.284;20.890;2023-12-29T04:00:13;6.80;;;3.70;;
41141;SDS011;63666;52.284;20.890;2023-12-29T04:02:49;6.20;;;4.00;;
41141;SDS011;63666;52.284;20.890;2023-12-29T04:05:25;6.40;;;3.90;;
41141;SDS011;63666;52.284;20.890;2023-12-29T04:08:02;6.00;;;3.60;;
41141;SDS011;63666;52.284;20.890;2023-12-29T04:10:40;6.50;;;3.90;;
41141;SDS011;63666;52.284;20.890;2023-12-29T04:13:16;6.80;;;4.00;;
41141;SDS011;63666;52.284;20.890;2023-12-29T04:15:53;7.40;;;4.00;;
41141;SDS011;63666;52.284;20.890;2023-12-29T04:18:30;6.20;;;3.90;;
41141;SDS011;63666;52.284;20.890;2023-12-29T04:21:06;6.90;;;3.90;;
41141;SDS011;63666;52.284;20.890;2023-12-29T04:23:46;7.20;;;3.80;;
41141;SDS011;63666;52.284;20.890;2023-12-29T04:26:22;7.70;;;4.10;;
41141;SDS011;63666;52.284;20.890;2023-12-29T04:28:58;7.90;;;4.00;;
41141;SDS011;63666;52.284;20.890;2023-12-29T04:31:34;7.00;;;3.90;;
41141;SDS011;63666;52.284;20.890;2023-12-29T04:34:10;6.40;;;3.80;;
41141;SDS011;63666;52.284;20.890;2023-12-29T04:36:46;6.50;;;4.00;;
41141;SDS011;63666;52.284;20.890;2023-12-29T04:39:23;6.40;;;3.70;;
41141;SDS011;63666;52.284;20.890;2023-12-29T04:42:01;6.80;;;3.80;;
41141;SDS011;63666;52.284;20.890;2023-12-29T04:44:40;6.90;;;3.90;;
41141;SDS011;63666;52.284;20.890;2023-12-29T04:47:16;5.70;;;3.90;;
41141;SDS011;63666;52.284;20.890;2023-12-29T04:49:52;6.40;;;3.70;;
41141;SDS011;63666;52.284;20.890;2023-12-29T04:52:28;7.00;;;4.20;;
41141;SDS011;63666;52.284;20.890;2023-12-29T04:55:05;6.40;;;3.70;;
41141;SDS011;63666;52.284;20.890;2023-12-29T04:57:42;7.90;;;3.70;;
41141;SDS011;63666;52.284;20.890;2023-12-29T05:00:18;6.40;;;3.30;;
41141;SDS011;63666;52.284;20.890;2023-12-29T05:02:54;6.60;;;3.80;;
41141;SDS011;63666;52.284;20.890;2023-12-29T05:05:30;6.30;;;3.90;;
41141;SDS011;63666;52.284;20.890;2023-12-29T05:08:07;5.90;;;3.60;;
41141;SDS011;63666;52.284;20.890;2023-12-29T05:10:43;6.60;;;3.80;;
41141;SDS011;63666;52.284;20.890;2023-12-29T05:13:21;6.00;;;3.80;;
41141;SDS011;63666;52.284;20.890;2023-12-29T05:15:57;6.30;;;3.70;;
41141;SDS011;63666;52.284;20.890;2023-12-29T05:18:35;7.20;;;3.80;;
41141;SDS011;63666;52.284;20.890;2023-12-29T05:21:18;6.70;;;3.90;;
41141;SDS011;63666;52.284;20.890;2023-12-29T05:24:02;6.70;;;3.80;;
41141;SDS011;63666;52.284;20.890;2023-12-29T05:26:40;6.10;;;3.70;;
41141;SDS011;63666;52.284;20.890;2023-12-29T05:29:16;6.70;;;4.00;;
41141;SDS011;63666;52.284;20.890;2023-12-29T05:31:52;6.40;;;3.70;;
41141;SDS011;63666;52.284;20.890;2023-12-29T05:34:31;5.90;;;3.60;;
41141;SDS011;63666;52.284;20.890;2023-12-29T05:37:11;6.10;;;3.70;;
41141;SDS011;63666;52.284;20.890;2023-12-29T05:39:51;5.90;;;3.70;;
41141;SDS011;63666;52.284;20.890;2023-12-29T05:42:34;6.00;;;3.70;;
41141;SDS011;63666;52.284;20.890;2023-12-29T05:45:13;6.40;;;3.70;;
41141;SDS011;63666;52.284;20.890;2023-12-29T05:47:51;5.70;;;3.50;;
41141;SDS011;63666;52.284;20.890;2023-12-29T05:50:27;5.70;;;3.60;;
41141;SDS011;63666;52.284;20.890;2023-12-29T05:53:04;6.00;;;3.70;;
41141;SDS011;63666;52.284;20.890;2023-12-29T05:55:41;6.10;;;3.80;;
41141;SDS011;63666;52.284;20.890;2023-12-29T05:58:19;6.50;;;3.80;;
41141;SDS011;63666;52.284;20.890;2023-12-29T06:01:00;6.10;;;3.90;;
41141;SDS011;63666;52.284;20.890;2023-12-29T06:03:42;6.10;;;3.60;;
41141;SDS011;63666;52.284;20.890;2023-12-29T06:06:19;5.40;;;3.60;;
41141;SDS011;63666;52.284;20.890;2023-12-29T06:08:57;6.30;;;3.70;;
41141;SDS011;63666;52.284;20.890;2023-12-29T06:11:40;6.10;;;3.70;;
41141;SDS011;63666;52.284;20.890;2023-12-29T06:14:20;7.10;;;3.90;;
41141;SDS011;63666;52.284;20.890;2023-12-29T06:16:57;6.30;;;3.80;;
41141;SDS011;63666;52.284;20.890;2023-12-29T06:19:36;6.70;;;3.80;;
41141;SDS011;63666;52.284;20.890;2023-12-29T06:22:15;5.40;;;3.30;;
41141;SDS011;63666;52.284;20.890;2023-12-29T06:24:53;6.40;;;3.60;;
41141;SDS011;63666;52.284;20.890;2023-12-29T06:27:30;5.70;;;3.50;;
41141;SDS011;63666;52.284;20.890;2023-12-29T06:30:11;6.20;;;3.60;;
41141;SDS011;63666;52.284;20.890;2023-12-29T06:32:49;5.30;;;3.40;;
41141;SDS011;63666;52.284;20.890;2023-12-29T06:35:25;5.60;;;3.60;;
41141;SDS011;63666;52.284;20.890;2023-12-29T06:38:05;6.00;;;3.50;;
41141;SDS011;63666;52.284;20.890;2023-12-29T06:40:41;6.10;;;3.90;;
41141;SDS011;63666;52.284;20.890;2023-12-29T06:43:18;5.80;;;3.60;;
41141;SDS011;63666;52.284;20.890;2023-12-29T06:45:56;6.50;;;3.60;;
41141;SDS011;63666;52.284;20.890;2023-12-29T06:48:37;6.30;;;3.50;;
41141;SDS011;63666;52.284;20.890;2023-12-29T06:51:18;5.90;;;3.50;;
41141;SDS011;63666;52.284;20.890;2023-12-29T06:53:59;5.40;;;3.30;;
41141;SDS011;63666;52.284;20.890;2023-12-29T06:56:38;6.40;;;3.50;;
41141;SDS011;63666;52.284;20.890;2023-12-29T06:59:17;6.40;;;3.40;;
41141;SDS011;63666;52.284;20.890;2023-12-29T07:01:55;6.60;;;3.70;;
41141;SDS011;63666;52.284;20.890;2023-12-29T07:04:34;5.60;;;3.30;;
41141;SDS011;63666;52.284;20.890;2023-12-29T07:07:12;5.90;;;3.50;;
41141;SDS011;63666;52.284;20.890;2023-12-29T07:09:49;6.20;;;3.50;;
41141;SDS011;63666;52.284;20.890;2023-12-29T07:12:27;5.50;;;3.50;;
41141;SDS011;63666;52.284;20.890;2023-12-29T07:15:05;7.00;;;3.50;;
41141;SDS011;63666;52.284;20.890;2023-12-29T07:17:42;6.70;;;3.50;;
41141;SDS011;63666;52.284;20.890;2023-12-29T07:20:18;5.80;;;3.50;;
41141;SDS011;63666;52.284;20.890;2023-12-29T07:22:56;6.00;;;3.50;;
41141;SDS011;63666;52.284;20.890;2023-12-29T07:25:35;5.40;;;3.10;;
41141;SDS011;63666;52.284;20.890;2023-12-29T07:28:15;6.50;;;3.30;;
41141;SDS011;63666;52.284;20.890;2023-12-29T07:30:53;5.80;;;3.50;;
41141;SDS011;63666;52.284;20.890;2023-12-29T07:33:31;6.00;;;3.40;;
41141;SDS011;63666;52.284;20.890;2023-12-29T07:36:11;5.80;;;3.50;;
41141;SDS011;63666;52.284;20.890;2023-12-29T07:38:52;5.40;;;3.20;;
41141;SDS011;63666;52.284;20.890;2023-12-29T07:41:28;6.00;;;3.70;;
41141;SDS011;63666;52.284;20.890;2023-12-29T07:44:07;6.30;;;3.50;;
41141;SDS011;63666;52.284;20.890;2023-12-29T07:46:47;6.40;;;3.60;;
41141;SDS011;63666;52.284;20.890;2023-12-29T07:49:24;5.60;;;3.20;;
41141;SDS011;63666;52.284;20.890;2023-12-29T07:52:05;5.50;;;3.30;;
41141;SDS011;63666;52.284;20.890;2023-12-29T07:54:44;7.10;;;3.60;;
41141;SDS011;63666;52.284;20.890;2023-12-29T07:57:20;5.10;;;3.20;;
41141;SDS011;63666;52.284;20.890;2023-12-29T07:59:58;6.80;;;3.50;;
41141;SDS011;63666;52.284;20.890;2023-12-29T08:02:35;5.80;;;3.70;;
41141;SDS011;63666;52.284;20.890;2023-12-29T08:05:11;6.60;;;3.50;;
41141;SDS011;63666;52.284;20.890;2023-12-29T08:07:49;6.50;;;3.60;;
41141;SDS011;63666;52.284;20.890;2023-12-29T08:10:27;6.10;;;3.40;;
41141;SDS011;63666;52.284;20.890;2023-12-29T08:13:02;5.90;;;3.10;;
41141;SDS011;63666;52.284;20.890;2023-12-29T08:15:41;7.00;;;3.40;;
41141;SDS011;63666;52.284;20.890;2023-12-29T08:18:17;5.80;;;3.30;;
41141;SDS011;63666;52.284;20.890;2023-12-29T08:20:55;5.60;;;3.20;;
41141;SDS011;63666;52.284;20.890;2023-12-29T08:23:35;6.10;;;3.30;;
41141;SDS011;63666;52.284;20.890;2023-12-29T08:26:11;5.90;;;3.20;;
41141;SDS011;63666;52.284;20.890;2023-12-29T08:28:49;6.30;;;3.40;;
41141;SDS011;63666;52.284;20.890;2023-12-29T08:31:24;6.00;;;3.60;;
41141;SDS011;63666;52.284;20.890;2023-12-29T08:34:02;5.90;;;3.30;;
41141;SDS011;63666;52.284;20.890;2023-12-29T08:36:39;6.20;;;3.20;;
41141;SDS011;63666;52.284;20.890;2023-12-29T08:39:19;5.70;;;3.30;;
41141;SDS011;63666;52.284;20.890;2023-12-29T08:41:56;5.50;;;3.00;;
41141;SDS011;63666;52.284;20.890;2023-12-29T08:44:34;5.80;;;3.00;;
41141;SDS011;63666;52.284;20.890;2023-12-29T08:47:09;5.70;;;3.00;;
41141;SDS011;63666;52.284;20.890;2023-12-29T08:49:46;5.90;;;3.40;;
41141;SDS011;63666;52.284;20.890;2023-12-29T08:52:24;5.50;;;3.20;;
41141;SDS011;63666;52.284;20.890;2023-12-29T08:54:59;5.50;;;3.20;;
41141;SDS011;63666;52.284;20.890;2023-12-29T08:57:35;5.20;;;2.90;;
41141;SDS011;63666;52.284;20.890;2023-12-29T09:00:12;5.30;;;3.00;;
41141;SDS011;63666;52.284;20.890;2023-12-29T09:02:49;5.60;;;2.90;;
41141;SDS011;63666;52.284;20.890;2023-12-29T09:05:26;5.90;;;3.00;;
41141;SDS011;63666;52.284;20.890;2023-12-29T09:08:02;5.10;;;3.00;;
41141;SDS011;63666;52.284;20.890;2023-12-29T09:10:38;5.10;;;2.90;;
41141;SDS011;63666;52.284;20.890;2023-12-29T09:13:14;4.90;;;2.70;;
41141;SDS011;63666;52.284;20.890;2023-12-29T09:15:52;5.40;;;2.90;;
41141;SDS011;63666;52.284;20.890;2023-12-29T09:18:29;5.20;;;2.90;;
41141;SDS011;63666;52.284;20.890;2023-12-29T09:21:07;5.40;;;3.10;;
41141;SDS011;63666;52.284;20.890;2023-12-29T09:23:44;5.10;;;2.80;;
41141;SDS011;63666;52.284;20.890;2023-12-29T09:26:24;5.60;;;2.90;;
41141;SDS011;63666;52.284;20.890;2023-12-29T09:29:03;5.00;;;2.60;;
41141;SDS011;63666;52.284;20.890;2023-12-29T09:31:39;4.80;;;2.80;;
41141;SDS011;63666;52.284;20.890;2023-12-29T09:34:15;5.20;;;2.90;;
41141;SDS011;63666;52.284;20.890;2023-12-29T09:36:51;5.30;;;2.90;;
41141;SDS011;63666;52.284;20.890;2023-12-29T09:39:28;5.20;;;2.90;;
41141;SDS011;63666;52.284;20.890;2023-12-29T09:42:08;5.10;;;2.80;;
41141;SDS011;63666;52.284;20.890;2023-12-29T09:44:50;5.20;;;3.00;;
41141;SDS011;63666;52.284;20.890;2023-12-29T09:47:27;5.20;;;3.20;;
41141;SDS011;63666;52.284;20.890;2023-12-29T09:50:09;5.20;;;2.90;;
41141;SDS011;63666;52.284;20.890;2023-12-29T09:52:51;6.10;;;3.30;;
41141;SDS011;63666;52.284;20.890;2023-12-29T09:55:30;7.00;;;3.50;;
41141;SDS011;63666;52.284;20.890;2023-12-29T09:58:08;8.00;;;3.50;;
41141;SDS011;63666;52.284;20.890;2023-12-29T10:00:47;9.00;;;3.70;;
41141;SDS011;63666;52.284;20.890;2023-12-29T10:03:25;7.10;;;3.80;;
41141;SDS011;63666;52.284;20.890;2023-12-29T10:06:06;8.10;;;4.10;;
41141;SDS011;63666;52.284;20.890;2023-12-29T10:08:47;7.60;;;3.50;;
41141;SDS011;63666;52.284;20.890;2023-12-29T10:11:25;8.90;;;3.90;;
41141;SDS011;63666;52.284;20.890;2023-12-29T10:14:18;7.70;;;3.50;;
41141;SDS011;63666;52.284;20.890;2023-12-29T10:17:06;6.80;;;3.40;;
41141;SDS011;63666;52.284;20.890;2023-12-29T10:19:53;7.00;;;3.50;;
41141;SDS011;63666;52.284;20.890;2023-12-29T10:22:41;6.90;;;3.80;;
41141;SDS011;63666;52.284;20.890;2023-12-29T10:25:23;7.70;;;4.00;;
41141;SDS011;63666;52.284;20.890;2023-12-29T10:27:59;7.80;;;4.00;;
41141;SDS011;63666;52.284;20.890;2023-12-29T10:30:36;6.60;;;4.00;;
41141;SDS011;63666;52.284;20.890;2023-12-29T10:33:20;8.40;;;4.40;;
41141;SDS011;63666;52.284;20.890;2023-12-29T10:36:02;7.00;;;4.50;;
41141;SDS011;63666;52.284;20.890;2023-12-29T10:38:43;6.80;;;4.60;;
41141;SDS011;63666;52.284;20.890;2023-12-29T10:41:24;8.30;;;4.60;;
41141;SDS011;63666;52.284;20.890;2023-12-29T10:44:07;7.10;;;4.50;;
41141;SDS011;63666;52.284;20.890;2023-12-29T10:46:43;7.80;;;4.40;;
41141;SDS011;63666;52.284;20.890;2023-12-29T10:49:20;7.00;;;4.10;;
41141;SDS011;63666;52.284;20.890;2023-12-29T10:52:01;6.50;;;4.40;;
41141;SDS011;63666;52.284;20.890;2023-12-29T10:54:48;6.60;;;4.20;;
41141;SDS011;63666;52.284;20.890;2023-12-29T10:57:24;6.30;;;4.10;;
41141;SDS011;63666;52.284;20.890;2023-12-29T11:00:00;6.30;;;4.10;;
41141;SDS011;63666;52.284;20.890;2023-12-29T11:02:38;7.30;;;4.30;;
41141;SDS011;63666;52.284;20.890;2023-12-29T11:05:15;6.50;;;5.00;;
41141;SDS011;63666;52.284;20.890;2023-12-29T11:07:50;6.70;;;4.80;;
41141;SDS011;63666;52.284;20.890;2023-12-29T11:10:27;6.00;;;4.10;;
41141;SDS011;63666;52.284;20.890;2023-12-29T11:13:05;6.90;;;4.40;;
41141;SDS011;63666;52.284;20.890;2023-12-29T11:15:43;6.40;;;4.30;;
41141;SDS011;63666;52.284;20.890;2023-12-29T11:18:19;6.50;;;4.00;;
41141;SDS011;63666;52.284;20.890;2023-12-29T11:20:57;7.10;;;4.50;;
41141;SDS011;63666;52.284;20.890;2023-12-29T11:23:33;6.80;;;5.40;;
41141;SDS011;63666;52.284;20.890;2023-12-29T11:26:09;7.50;;;5.80;;
41141;SDS011;63666;52.284;20.890;2023-12-29T11:28:47;8.00;;;5.60;;
41141;SDS011;63666;52.284;20.890;2023-12-29T11:31:23;8.10;;;5.30;;
41141;SDS011;63666;52.284;20.890;2023-12-29T11:34:03;7.10;;;5.30;;
41141;SDS011;63666;52.284;20.890;2023-12-29T11:36:46;7.00;;;5.20;;
41141;SDS011;63666;52.284;20.890;2023-12-29T11:39:27;6.40;;;4.80;;
41141;SDS011;63666;52.284;20.890;2023-12-29T11:42:14;7.10;;;4.50;;
41141;SDS011;63666;52.284;20.890;2023-12-29T11:44:53;6.00;;;4.40;;
41141;SDS011;63666;52.284;20.890;2023-12-29T11:47:39;7.00;;;4.50;;
41141;SDS011;63666;52.284;20.890;2023-12-29T11:50:15;6.50;;;4.40;;
41141;SDS011;63666;52.284;20.890;2023-12-29T11:53:04;6.40;;;4.40;;
41141;SDS011;63666;52.284;20.890;2023-12-29T11:55:40;6.00;;;4.30;;
41141;SDS011;63666;52.284;20.890;2023-12-29T11:58:27;5.70;;;4.00;;
41141;SDS011;63666;52.284;20.890;2023-12-29T12:01:05;6.40;;;4.30;;
41141;SDS011;63666;52.284;20.890;2023-12-29T12:03:41;6.10;;;4.10;;
41141;SDS011;63666;52.284;20.890;2023-12-29T12:06:38;5.90;;;3.70;;
41141;SDS011;63666;52.284;20.890;2023-12-29T12:09:23;5.60;;;3.70;;
41141;SDS011;63666;52.284;20.890;2023-12-29T12:11:59;6.10;;;3.80;;
41141;SDS011;63666;52.284;20.890;2023-12-29T12:14:52;5.90;;;3.60;;
41141;SDS011;63666;52.284;20.890;2023-12-29T12:17:35;6.80;;;3.60;;
41141;SDS011;63666;52.284;20.890;2023-12-29T12:20:14;5.20;;;3.30;;
41141;SDS011;63666;52.284;20.890;2023-12-29T12:22:58;5.80;;;3.50;;
41141;SDS011;63666;52.284;20.890;2023-12-29T12:25:35;6.00;;;3.80;;
41141;SDS011;63666;52.284;20.890;2023-12-29T12:28:15;6.00;;;3.40;;
41141;SDS011;63666;52.284;20.890;2023-12-29T12:30:51;5.60;;;3.70;;
41141;SDS011;63666;52.284;20.890;2023-12-29T12:33:29;5.80;;;3.70;;
41141;SDS011;63666;52.284;20.890;2023-12-29T12:36:06;5.50;;;3.30;;
41141;SDS011;63666;52.284;20.890;2023-12-29T12:38:58;7.90;;;4.30;;
41141;SDS011;63666;52.284;20.890;2023-12-29T12:41:36;7.40;;;4.30;;
41141;SDS011;63666;52.284;20.890;2023-12-29T12:44:12;7.30;;;4.30;;
41141;SDS011;63666;52.284;20.890;2023-12-29T12:46:56;6.80;;;4.00;;
41141;SDS011;63666;52.284;20.890;2023-12-29T12:49:35;7.50;;;4.20;;
41141;SDS011;63666;52.284;20.890;2023-12-29T12:52:11;7.40;;;4.00;;
41141;SDS011;63666;52.284;20.890;2023-12-29T12:54:48;6.00;;;3.70;;
41141;SDS011;63666;52.284;20.890;2023-12-29T12:57:27;6.70;;;3.60;;
41141;SDS011;63666;52.284;20.890;2023-12-29T13:00:05;6.10;;;3.50;;
41141;SDS011;63666;52.284;20.890;2023-12-29T13:02:45;6.20;;;3.40;;
41141;SDS011;63666;52.284;20.890;2023-12-29T13:05:22;5.40;;;3.40;;
41141;SDS011;63666;52.284;20.890;2023-12-29T13:08:00;6.20;;;3.10;;
41141;SDS011;63666;52.284;20.890;2023-12-29T13:10:42;7.20;;;3.30;;
41141;SDS011;63666;52.284;20.890;2023-12-29T13:13:18;6.60;;;3.00;;
41141;SDS011;63666;52.284;20.890;2023-12-29T13:15:55;7.20;;;3.20;;
41141;SDS011;63666;52.284;20.890;2023-12-29T13:18:32;5.70;;;3.00;;
41141;SDS011;63666;52.284;20.890;2023-12-29T13:21:10;6.70;;;3.10;;
41141;SDS011;63666;52.284;20.890;2023-12-29T13:23:47;5.50;;;2.80;;
41141;SDS011;63666;52.284;20.890;2023-12-29T13:26:22;6.00;;;2.90;;
41141;SDS011;63666;52.284;20.890;2023-12-29T13:29:02;5.20;;;2.70;;
41141;SDS011;63666;52.284;20.890;2023-12-29T13:31:44;6.00;;;2.70;;
41141;SDS011;63666;52.284;20.890;2023-12-29T13:34:29;5.70;;;2.70;;
41141;SDS011;63666;52.284;20.890;2023-12-29T13:37:13;5.70;;;2.80;;
41141;SDS011;63666;52.284;20.890;2023-12-29T13:39:56;5.30;;;2.90;;
41141;SDS011;63666;52.284;20.890;2023-12-29T13:42:37;5.10;;;2.60;;
41141;SDS011;63666;52.284;20.890;2023-12-29T13:45:16;5.10;;;2.90;;
41141;SDS011;63666;52.284;20.890;2023-12-29T13:47:54;5.90;;;2.70;;
41141;SDS011;63666;52.284;20.890;2023-12-29T13:50:31;5.10;;;2.50;;
41141;SDS011;63666;52.284;20.890;2023-12-29T13:53:08;5.40;;;2.60;;
41141;SDS011;63666;52.284;20.890;2023-12-29T13:55:50;6.40;;;2.80;;
41141;SDS011;63666;52.284;20.890;2023-12-29T13:58:28;5.40;;;2.80;;
41141;SDS011;63666;52.284;20.890;2023-12-29T14:01:08;5.80;;;2.70;;
41141;SDS011;63666;52.284;20.890;2023-12-29T14:03:50;5.70;;;2.70;;
41141;SDS011;63666;52.284;20.890;2023-12-29T14:06:48;6.20;;;2.70;;
41141;SDS011;63666;52.284;20.890;2023-12-29T14:09:26;4.80;;;2.50;;
41141;SDS011;63666;52.284;20.890;2023-12-29T14:12:03;5.10;;;2.50;;
41141;SDS011;63666;52.284;20.890;2023-12-29T14:14:40;6.10;;;2.60;;
41141;SDS011;63666;52.284;20.890;2023-12-29T14:17:22;6.50;;;2.90;;
41141;SDS011;63666;52.284;20.890;2023-12-29T14:20:00;4.90;;;2.40;;
41141;SDS011;63666;52.284;20.890;2023-12-29T14:22:40;5.10;;;2.70;;
41141;SDS011;63666;52.284;20.890;2023-12-29T14:25:18;5.40;;;2.60;;
41141;SDS011;63666;52.284;20.890;2023-12-29T14:27:54;5.60;;;2.70;;
41141;SDS011;63666;52.284;20.890;2023-12-29T14:30:30;4.60;;;2.50;;
41141;SDS011;63666;52.284;20.890;2023-12-29T14:33:07;4.90;;;2.40;;
41141;SDS011;63666;52.284;20.890;2023-12-29T14:35:43;5.10;;;2.60;;
41141;SDS011;63666;52.284;20.890;2023-12-29T14:38:19;5.50;;;2.50;;
41141;SDS011;63666;52.284;20.890;2023-12-29T14:40:56;5.60;;;2.30;;
41141;SDS011;63666;52.284;20.890;2023-12-29T14:43:33;6.10;;;2.90;;
41141;SDS011;63666;52.284;20.890;2023-12-29T14:46:08;6.00;;;3.00;;
41141;SDS011;63666;52.284;20.890;2023-12-29T14:48:44;5.70;;;2.60;;
41141;SDS011;63666;52.284;20.890;2023-12-29T14:51:20;5.50;;;2.40;;
41141;SDS011;63666;52.284;20.890;2023-12-29T14:53:56;6.40;;;2.70;;
41141;SDS011;63666;52.284;20.890;2023-12-29T14:56:32;5.90;;;2.70;;
41141;SDS011;63666;52.284;20.890;2023-12-29T14:59:08;5.60;;;2.90;;
41141;SDS011;63666;52.284;20.890;2023-12-29T15:01:45;5.50;;;2.70;;
41141;SDS011;63666;52.284;20.890;2023-12-29T15:04:22;5.20;;;2.80;;
41141;SDS011;63666;52.284;20.890;2023-12-29T15:06:59;5.30;;;2.90;;
41141;SDS011;63666;52.284;20.890;2023-12-29T15:09:36;5.10;;;2.80;;
41141;SDS011;63666;52.284;20.890;2023-12-29T15:12:13;5.50;;;2.60;;
41141;SDS011;63666;52.284;20.890;2023-12-29T15:14:49;5.70;;;2.70;;
41141;SDS011;63666;52.284;20.890;2023-12-29T15:17:24;5.70;;;2.60;;
41141;SDS011;63666;52.284;20.890;2023-12-29T15:20:01;5.10;;;2.60;;
41141;SDS011;63666;52.284;20.890;2023-12-29T15:22:39;4.80;;;2.40;;
41141;SDS011;63666;52.284;20.890;2023-12-29T15:25:16;5.00;;;2.50;;
41141;SDS011;63666;52.284;20.890;2023-12-29T15:27:53;4.70;;;2.50;;
41141;SDS011;63666;52.284;20.890;2023-12-29T15:30:32;4.90;;;2.60;;
41141;SDS011;63666;52.284;20.890;2023-12-29T15:33:11;5.30;;;2.60;;
41141;SDS011;63666;52.284;20.890;2023-12-29T15:35:48;4.90;;;2.50;;
41141;SDS011;63666;52.284;20.890;2023-12-29T15:38:24;4.90;;;2.40;;